Time;durP1;ratioP1;P1;durP2;ratioP2;P2;SDS_P1;SDS_P2;PMS_P1;PMS_P2;Temp;Humidity;BMP_temperature;BMP_pressure;BME280_temperature;BME280_humidity;BME280_pressure;Samples;Min_cycle;Max_cycle;Signal;HPM_P1;HPM_P2
2021/10/06 00:00:32;;;;;;;0.03;0.03;;;11.30;96.00;;;;;;5114019;28;20055;-72
2021/10/06 00:03:00;;;;;;;0.00;0.00;;;11.30;96.00;;;;;;5114430;28;20023;-72
2021/10/06 00:05:26;;;;;;;0.00;0.00;;;11.30;96.00;;;;;;5114027;28;20020;-73
2021/10/06 00:07:51;;;;;;;0.00;0.00;;;11.40;96.10;;;;;;5113528;28;20038;-72
2021/10/06 00:10:16;;;;;;;0.10;0.10;;;11.40;96.00;;;;;;5114081;28;20027;-72
2021/10/06 00:12:42;;;;;;;0.10;0.10;;;11.40;96.10;;;;;;5095614;28;20054;-73
2021/10/06 00:15:09;;;;;;;0.00;0.00;;;11.40;96.00;;;;;;5113880;28;20074;-72
2021/10/06 00:17:35;;;;;;;0.10;0.10;;;11.40;96.10;;;;;;5113921;28;20015;-73
2021/10/06 00:20:00;;;;;;;0.10;0.10;;;11.50;96.10;;;;;;5113834;28;20030;-73
2021/10/06 00:22:26;;;;;;;0.00;0.00;;;11.40;96.00;;;;;;5113410;28;20518;-72
2021/10/06 00:24:51;;;;;;;0.10;0.10;;;11.40;96.00;;;;;;5113882;28;20028;-73
2021/10/06 00:27:17;;;;;;;0.00;0.00;;;11.50;96.00;;;;;;5113863;28;20031;-73
2021/10/06 00:29:43;;;;;;;0.00;0.00;;;11.50;96.00;;;;;;5113461;28;20369;-72
2021/10/06 00:32:08;;;;;;;0.03;0.03;;;11.40;96.00;;;;;;5113800;28;20020;-72
2021/10/06 00:34:34;;;;;;;0.10;0.10;;;11.40;96.00;;;;;;5095392;28;20039;-72
2021/10/06 00:36:59;;;;;;;0.00;0.00;;;11.40;96.00;;;;;;5113285;28;20023;-72
2021/10/06 00:39:25;;;;;;;0.00;0.00;;;11.50;96.00;;;;;;5113667;28;20024;-73
2021/10/06 00:41:50;;;;;;;0.00;0.00;;;11.40;96.00;;;;;;5113852;28;20376;-73
2021/10/06 00:44:18;;;;;;;0.10;0.10;;;11.40;96.20;;;;;;5113471;28;20028;-72
2021/10/06 00:46:45;;;;;;;0.00;0.00;;;11.40;95.90;;;;;;5113735;28;20107;-73
2021/10/06 00:49:13;;;;;;;0.00;0.00;;;11.50;95.90;;;;;;5095308;28;20040;-72
2021/10/06 00:51:39;;;;;;;0.00;0.00;;;11.50;95.90;;;;;;5094865;28;20494;-73
2021/10/06 00:54:05;;;;;;;0.10;0.10;;;11.50;95.90;;;;;;5114477;28;20020;-73
2021/10/06 00:56:31;;;;;;;0.00;0.00;;;11.60;95.90;;;;;;5117694;28;20020;-72
2021/10/06 00:58:56;;;;;;;0.00;0.00;;;11.60;95.90;;;;;;5117686;28;20034;-73
2021/10/06 01:01:22;;;;;;;0.10;0.10;;;11.60;95.90;;;;;;5117636;28;20091;-72
2021/10/06 01:03:47;;;;;;;0.10;0.10;;;11.60;95.80;;;;;;5117841;28;20480;-72
2021/10/06 01:06:13;;;;;;;0.00;0.00;;;11.70;95.80;;;;;;5116904;28;20080;-73
2021/10/06 01:08:38;;;;;;;0.00;0.00;;;11.70;95.90;;;;;;5117694;28;20088;-72
2021/10/06 01:11:04;;;;;;;0.00;0.00;;;11.70;95.90;;;;;;5117288;28;20040;-72
2021/10/06 01:13:30;;;;;;;0.00;0.00;;;11.70;95.80;;;;;;5117420;28;20095;-73
2021/10/06 01:15:56;;;;;;;0.00;0.00;;;11.80;95.80;;;;;;5117417;28;20103;-72
2021/10/06 01:18:21;;;;;;;0.10;0.10;;;11.80;95.80;;;;;;5117358;28;20031;-72
2021/10/06 01:20:47;;;;;;;0.00;0.00;;;11.80;95.70;;;;;;5116773;28;20031;-73
2021/10/06 01:23:14;;;;;;;0.08;0.08;;;11.80;95.80;;;;;;5117233;28;20026;-73
2021/10/06 01:25:40;;;;;;;0.00;0.00;;;11.80;95.80;;;;;;5117105;28;20065;-72
2021/10/06 01:28:05;;;;;;;0.00;0.00;;;11.80;95.80;;;;;;5117062;28;20044;-73
2021/10/06 01:30:31;;;;;;;0.00;0.00;;;11.80;95.80;;;;;;5117188;28;20022;-72
2021/10/06 01:32:56;;;;;;;0.03;0.00;;;11.80;95.80;;;;;;5116948;28;20028;-72
2021/10/06 01:35:22;;;;;;;0.00;0.00;;;11.80;95.80;;;;;;5116533;28;20020;-71
2021/10/06 01:37:47;;;;;;;0.00;0.00;;;11.80;95.80;;;;;;5116974;28;20023;-72
2021/10/06 01:40:17;;;;;;;0.00;0.00;;;11.80;95.80;;;;;;5116913;28;20041;-72
2021/10/06 01:42:43;;;;;;;0.00;0.00;;;11.90;95.80;;;;;;5098525;28;20023;-73
2021/10/06 01:45:22;;;;;;;0.10;0.10;;;11.80;95.80;;;;;;5116771;28;20069;-71
2021/10/06 01:47:48;;;;;;;0.10;0.10;;;11.80;95.80;;;;;;5116761;28;20111;-73
2021/10/06 01:50:19;;;;;;;0.00;0.00;;;11.80;95.80;;;;;;5116112;28;20027;-73
2021/10/06 01:52:45;;;;;;;0.10;0.10;;;11.80;95.80;;;;;;5116585;28;20020;-73
2021/10/06 01:55:10;;;;;;;0.00;0.00;;;11.80;95.80;;;;;;5116569;28;20046;-72
2021/10/06 01:57:35;;;;;;;0.00;0.00;;;11.80;95.80;;;;;;5116918;28;20042;-72
2021/10/06 02:00:02;;;;;;;0.00;0.00;;;11.80;95.80;;;;;;5098322;28;20020;-72
2021/10/06 02:02:27;;;;;;;0.00;0.00;;;11.80;95.80;;;;;;5098212;28;20134;-72
2021/10/06 02:04:53;;;;;;;0.00;0.00;;;11.80;96.10;;;;;;5097721;28;20051;-72
2021/10/06 02:07:18;;;;;;;0.00;0.00;;;11.80;95.90;;;;;;5098015;28;20020;-72
2021/10/06 02:09:44;;;;;;;0.08;0.08;;;11.80;95.90;;;;;;5097916;28;20504;-73
2021/10/06 02:12:09;;;;;;;0.00;0.00;;;11.70;95.90;;;;;;5116266;28;20162;-72
2021/10/06 02:14:36;;;;;;;0.00;0.00;;;11.70;95.90;;;;;;5116256;28;20027;-73
2021/10/06 02:17:02;;;;;;;0.10;0.10;;;11.80;95.90;;;;;;5097986;28;20359;-72
2021/10/06 02:19:30;;;;;;;0.10;0.10;;;11.80;95.90;;;;;;5115740;28;20030;-71
2021/10/06 02:21:56;;;;;;;0.00;0.00;;;11.70;95.90;;;;;;5097855;28;20102;-73
2021/10/06 02:24:21;;;;;;;0.00;0.00;;;11.70;95.90;;;;;;5116145;28;20427;-73
2021/10/06 02:26:47;;;;;;;0.00;0.00;;;11.70;95.90;;;;;;5116032;28;20464;-73
2021/10/06 02:29:12;;;;;;;0.00;0.00;;;11.70;95.90;;;;;;5115810;28;20114;-73
2021/10/06 02:31:38;;;;;;;0.08;0.08;;;11.70;95.90;;;;;;5115872;28;20020;-73
2021/10/06 02:34:03;;;;;;;0.00;0.00;;;11.70;95.90;;;;;;5115314;28;20426;-72
2021/10/06 02:36:29;;;;;;;0.00;0.00;;;11.70;95.90;;;;;;5115938;28;20371;-73
2021/10/06 02:38:55;;;;;;;0.00;0.00;;;11.70;95.90;;;;;;5115650;28;20539;-72
2021/10/06 02:41:20;;;;;;;0.00;0.00;;;11.70;95.90;;;;;;5115728;28;20088;-72
2021/10/06 02:43:46;;;;;;;0.00;0.00;;;11.70;95.90;;;;;;5115748;28;20102;-72
2021/10/06 02:46:11;;;;;;;0.00;0.00;;;11.60;95.90;;;;;;5115589;28;20095;-73
2021/10/06 02:48:37;;;;;;;0.00;0.00;;;11.60;95.90;;;;;;5115113;28;20365;-72
2021/10/06 02:51:02;;;;;;;0.00;0.00;;;11.60;95.90;;;;;;5115684;28;20055;-73
2021/10/06 02:53:28;;;;;;;0.00;0.00;;;11.60;95.90;;;;;;5115498;28;20027;-75
2021/10/06 02:55:53;;;;;;;0.00;0.00;;;11.60;96.00;;;;;;5115640;28;20023;-72
2021/10/06 02:58:19;;;;;;;0.00;0.00;;;11.60;96.00;;;;;;5115299;28;20035;-73
2021/10/06 03:00:44;;;;;;;0.10;0.10;;;11.60;95.90;;;;;;5115385;28;20411;-73
2021/10/06 03:03:10;;;;;;;0.00;0.00;;;11.50;95.90;;;;;;5114886;28;20034;-72
2021/10/06 03:05:35;;;;;;;0.10;0.10;;;11.50;95.90;;;;;;5115428;28;20019;-72
2021/10/06 03:08:01;;;;;;;0.00;0.00;;;11.60;95.90;;;;;;5115029;28;20127;-72
2021/10/06 03:10:26;;;;;;;0.00;0.00;;;11.60;95.90;;;;;;5115205;28;20026;-71
2021/10/06 03:12:52;;;;;;;0.10;0.10;;;11.60;95.90;;;;;;5114856;28;20046;-73
2021/10/06 03:15:17;;;;;;;0.10;0.10;;;11.60;95.90;;;;;;5096833;28;20384;-72
2021/10/06 03:17:43;;;;;;;0.03;0.03;;;11.60;95.90;;;;;;5114072;28;20373;-72
2021/10/06 03:20:10;;;;;;;0.00;0.00;;;11.60;95.90;;;;;;5114983;28;20024;-74
2021/10/06 03:22:36;;;;;;;0.00;0.00;;;11.60;95.90;;;;;;5114921;28;20024;-72
2021/10/06 03:25:02;;;;;;;0.00;0.00;;;11.50;95.90;;;;;;5114901;28;20020;-73
2021/10/06 03:27:28;;;;;;;0.00;0.00;;;11.40;96.00;;;;;;5114911;28;20031;-73
2021/10/06 03:29:53;;;;;;;0.00;0.00;;;11.40;96.10;;;;;;5114671;28;20043;-72
2021/10/06 03:32:19;;;;;;;0.13;0.00;;;11.40;96.00;;;;;;5114367;28;20349;-72
2021/10/06 03:34:44;;;;;;;0.00;0.00;;;11.40;96.00;;;;;;5114717;28;20024;-72
2021/10/06 03:37:10;;;;;;;0.10;0.10;;;11.30;96.10;;;;;;5114599;28;20085;-72
2021/10/06 03:39:36;;;;;;;0.00;0.00;;;11.30;96.10;;;;;;5114637;28;20472;-72
2021/10/06 03:42:02;;;;;;;0.00;0.00;;;11.30;96.20;;;;;;5114420;28;20036;-72
2021/10/06 03:44:28;;;;;;;0.00;0.00;;;11.20;96.20;;;;;;5114465;28;20139;-72
2021/10/06 03:46:53;;;;;;;0.00;0.00;;;11.20;96.30;;;;;;5114187;28;20476;-72
2021/10/06 03:49:19;;;;;;;0.00;0.00;;;11.20;96.50;;;;;;5114338;28;20080;-71
2021/10/06 03:51:44;;;;;;;0.00;0.00;;;11.20;96.50;;;;;;5114338;28;20499;-72
2021/10/06 03:54:10;;;;;;;0.00;0.00;;;11.20;96.60;;;;;;5114315;28;20098;-73
2021/10/06 03:56:35;;;;;;;0.10;0.10;;;11.20;96.70;;;;;;5114187;28;20054;-72
2021/10/06 03:59:01;;;;;;;0.00;0.00;;;11.20;96.70;;;;;;5114258;28;20091;-73
2021/10/06 04:01:27;;;;;;;0.08;0.08;;;11.10;96.60;;;;;;5113769;28;20020;-72
2021/10/06 04:03:52;;;;;;;0.00;0.00;;;11.10;96.70;;;;;;5095769;28;20030;-72
2021/10/06 04:06:18;;;;;;;0.00;0.00;;;11.10;96.80;;;;;;5095810;28;20032;-72
2021/10/06 04:08:43;;;;;;;0.00;0.00;;;11.10;96.70;;;;;;5114070;28;20028;-71
2021/10/06 04:11:09;;;;;;;0.00;0.00;;;11.10;96.70;;;;;;5113913;28;20048;-73
2021/10/06 04:13:34;;;;;;;0.00;0.00;;;11.10;96.80;;;;;;5114105;28;20059;-72
2021/10/06 04:16:00;;;;;;;0.10;0.10;;;11.20;96.80;;;;;;5113390;28;20023;-73
2021/10/06 04:18:25;;;;;;;0.10;0.10;;;11.20;96.80;;;;;;5095715;28;20027;-73
2021/10/06 04:20:51;;;;;;;0.08;0.08;;;11.20;96.80;;;;;;5113885;28;20106;-74
2021/10/06 04:23:16;;;;;;;0.10;0.10;;;11.20;96.80;;;;;;5113938;28;20058;-73
2021/10/06 04:25:42;;;;;;;0.00;0.00;;;11.10;96.80;;;;;;5113751;28;20106;-73
2021/10/06 04:28:08;;;;;;;0.00;0.00;;;11.20;96.80;;;;;;5113407;28;20091;-73
2021/10/06 04:30:34;;;;;;;0.00;0.00;;;11.10;96.70;;;;;;5112938;28;20016;-74
2021/10/06 04:33:00;;;;;;;0.03;0.03;;;11.10;97.00;;;;;;5113796;28;20023;-74
2021/10/06 04:35:26;;;;;;;0.00;0.00;;;11.00;96.70;;;;;;5113771;28;20415;-74
2021/10/06 04:37:51;;;;;;;0.00;0.00;;;10.90;96.60;;;;;;5113860;28;20410;-75
2021/10/06 04:40:17;;;;;;;0.00;0.00;;;10.80;96.70;;;;;;5113796;28;20068;-75
2021/10/06 04:42:45;;;;;;;0.10;0.10;;;10.70;96.80;;;;;;5113785;28;20452;-74
2021/10/06 04:45:12;;;;;;;0.00;0.00;;;10.70;96.80;;;;;;5113827;28;20026;-73
2021/10/06 04:47:38;;;;;;;0.00;0.00;;;10.60;96.90;;;;;;5113604;28;20016;-73
2021/10/06 04:50:04;;;;;;;0.00;0.00;;;10.70;97.00;;;;;;5095611;28;20027;-74
2021/10/06 04:52:29;;;;;;;0.00;0.00;;;10.70;97.00;;;;;;5113746;28;20039;-75
2021/10/06 04:54:55;;;;;;;0.00;0.00;;;10.70;97.00;;;;;;5113607;28;20020;-73
2021/10/06 04:57:21;;;;;;;0.00;0.00;;;10.70;97.10;;;;;;5113155;28;20016;-74
2021/10/06 04:59:46;;;;;;;0.10;0.10;;;10.80;97.10;;;;;;5113465;28;20081;-74
2021/10/06 05:02:12;;;;;;;0.08;0.08;;;10.80;97.00;;;;;;5095349;28;20107;-74
2021/10/06 05:04:37;;;;;;;0.10;0.10;;;10.80;97.00;;;;;;5113423;28;20019;-74
2021/10/06 05:07:03;;;;;;;0.10;0.10;;;10.80;97.00;;;;;;5095184;28;20069;-75
2021/10/06 05:09:28;;;;;;;0.00;0.00;;;10.80;97.00;;;;;;5113347;28;20031;-75
2021/10/06 05:11:54;;;;;;;0.10;0.10;;;10.90;97.10;;;;;;5112681;28;20042;-74
2021/10/06 05:14:19;;;;;;;0.10;0.10;;;10.80;97.10;;;;;;5113390;28;20098;-74
2021/10/06 05:16:45;;;;;;;0.10;0.10;;;10.80;97.10;;;;;;5113288;28;20016;-73
2021/10/06 05:19:12;;;;;;;0.10;0.10;;;10.80;97.30;;;;;;5113347;28;20023;-75
2021/10/06 05:21:39;;;;;;;0.00;0.00;;;10.80;97.10;;;;;;5095062;28;20176;-73
2021/10/06 05:24:05;;;;;;;0.08;0.08;;;10.80;97.00;;;;;;5113225;28;20400;-74
2021/10/06 05:26:31;;;;;;;0.10;0.10;;;10.90;97.00;;;;;;5112861;28;20468;-74
2021/10/06 05:28:56;;;;;;;0.00;0.00;;;10.90;97.10;;;;;;5112992;28;20032;-74
2021/10/06 05:31:22;;;;;;;0.10;0.10;;;10.80;97.10;;;;;;5095055;28;20012;-73
2021/10/06 05:33:48;;;;;;;0.10;0.10;;;10.80;97.10;;;;;;5094930;28;20395;-75
2021/10/06 05:36:15;;;;;;;0.00;0.00;;;10.90;97.10;;;;;;5113219;28;20016;-75
2021/10/06 05:38:41;;;;;;;0.10;0.10;;;10.90;97.10;;;;;;5113002;28;20032;-73
2021/10/06 05:41:06;;;;;;;0.10;0.10;;;10.90;97.00;;;;;;5115038;28;20019;-74
2021/10/06 05:43:32;;;;;;;0.00;0.00;;;10.90;97.00;;;;;;5116867;28;20031;-75
2021/10/06 05:46:00;;;;;;;0.00;0.00;;;10.90;97.10;;;;;;5116925;28;20028;-77
2021/10/06 05:48:26;;;;;;;0.00;0.00;;;10.80;97.10;;;;;;5098366;28;20035;-76
2021/10/06 05:50:51;;;;;;;0.10;0.10;;;10.90;97.10;;;;;;5098588;28;20372;-72
2021/10/06 05:53:18;;;;;;;0.00;0.00;;;10.90;97.10;;;;;;5116656;28;20103;-76
2021/10/06 05:55:43;;;;;;;0.00;0.00;;;10.90;97.10;;;;;;5097893;28;20020;-75
2021/10/06 05:58:09;;;;;;;0.00;0.00;;;10.90;97.10;;;;;;5116587;28;20030;-76
2021/10/06 06:00:34;;;;;;;0.10;0.10;;;10.80;97.00;;;;;;5116575;28;20023;-76
2021/10/06 06:03:00;;;;;;;0.00;0.00;;;10.80;97.10;;;;;;5116434;28;20433;-77
2021/10/06 06:05:26;;;;;;;0.00;0.00;;;10.80;97.10;;;;;;5116450;28;20024;-77
2021/10/06 06:07:52;;;;;;;0.00;0.00;;;10.80;97.10;;;;;;5116485;28;20027;-77
2021/10/06 06:10:17;;;;;;;0.03;0.03;;;10.80;97.10;;;;;;5115806;28;20043;-77
2021/10/06 06:12:43;;;;;;;0.10;0.10;;;10.80;97.10;;;;;;5116101;28;20047;-75
2021/10/06 06:15:09;;;;;;;0.00;0.00;;;10.80;97.10;;;;;;5116435;28;20059;-77
2021/10/06 06:17:37;;;;;;;0.00;0.00;;;10.80;97.10;;;;;;5097881;28;20015;-79
2021/10/06 06:20:09;;;;;;;0.03;0.03;;;10.80;97.10;;;;;;5097900;28;20154;-78
2021/10/06 06:22:35;;;;;;;0.00;0.00;;;10.80;97.10;;;;;;5116205;28;20028;-80
2021/10/06 06:25:01;;;;;;;0.05;0.05;;;10.90;97.10;;;;;;5115571;28;20387;-79
2021/10/06 06:27:26;;;;;;;0.00;0.00;;;10.90;97.10;;;;;;5097846;28;20023;-78
2021/10/06 06:29:52;;;;;;;0.00;0.00;;;10.90;97.10;;;;;;5097609;28;20036;-77
2021/10/06 06:32:17;;;;;;;0.00;0.00;;;10.90;97.10;;;;;;5116000;28;20027;-79
2021/10/06 06:34:43;;;;;;;0.00;0.00;;;10.80;97.00;;;;;;5097668;28;20035;-76
2021/10/06 06:37:08;;;;;;;0.00;0.00;;;10.80;97.00;;;;;;5131823;27;20425;-77
2021/10/06 06:39:34;;;;;;;0.00;0.00;;;10.80;97.10;;;;;;5115370;28;20537;-77
2021/10/06 06:41:59;;;;;;;0.10;0.10;;;10.90;97.10;;;;;;5115628;28;20031;-79
2021/10/06 06:44:25;;;;;;;0.00;0.00;;;10.80;97.10;;;;;;5097344;28;20055;-79
2021/10/06 06:46:51;;;;;;;0.00;0.00;;;10.80;97.10;;;;;;5115648;28;20035;-77
2021/10/06 06:49:16;;;;;;;0.00;0.00;;;10.80;97.10;;;;;;5115636;28;20027;-77
2021/10/06 06:51:42;;;;;;;0.30;0.10;;;10.70;97.10;;;;;;5114711;28;20099;-78
2021/10/06 06:54:07;;;;;;;0.00;0.00;;;10.70;97.20;;;;;;5114980;28;20064;-78
2021/10/06 06:56:38;;;;;;;0.10;0.00;;;10.80;97.20;;;;;;5097101;28;20467;-78
2021/10/06 06:59:05;;;;;;;0.00;0.00;;;10.80;97.20;;;;;;5131326;27;20019;-78
2021/10/06 07:01:31;;;;;;;0.00;0.00;;;10.80;97.20;;;;;;5115510;28;20011;-78
2021/10/06 07:03:56;;;;;;;0.00;0.00;;;10.80;97.20;;;;;;5115306;28;20020;-77
2021/10/06 07:06:22;;;;;;;0.00;0.00;;;10.80;97.20;;;;;;5115350;28;20020;-78
2021/10/06 07:08:48;;;;;;;0.00;0.00;;;10.80;97.20;;;;;;5114605;28;20039;-78
2021/10/06 07:11:14;;;;;;;0.00;0.00;;;10.80;97.20;;;;;;5115078;28;20058;-77
2021/10/06 07:13:40;;;;;;;0.00;0.00;;;10.80;97.20;;;;;;5115102;28;20098;-77
2021/10/06 07:16:05;;;;;;;0.08;0.08;;;10.90;97.20;;;;;;5096799;28;20123;-76
2021/10/06 07:18:31;;;;;;;0.10;0.10;;;10.80;97.10;;;;;;5114994;28;20055;-77
2021/10/06 07:20:59;;;;;;;0.00;0.00;;;10.90;97.20;;;;;;5114950;28;20020;-76
2021/10/06 07:23:25;;;;;;;0.00;0.00;;;10.90;97.10;;;;;;5114457;28;20024;-78
2021/10/06 07:25:50;;;;;;;0.10;0.10;;;10.90;97.20;;;;;;5114875;28;20024;-78
2021/10/06 07:28:16;;;;;;;0.00;0.00;;;10.90;97.10;;;;;;5114756;28;20036;-78
2021/10/06 07:30:41;;;;;;;0.00;0.00;;;10.90;97.20;;;;;;5114751;28;20024;-78
2021/10/06 07:33:07;;;;;;;0.00;0.00;;;10.90;97.20;;;;;;5114779;28;20027;-78
2021/10/06 07:35:32;;;;;;;0.00;0.00;;;10.90;97.20;;;;;;5114595;28;20020;-78
2021/10/06 07:37:58;;;;;;;0.10;0.10;;;11.00;97.20;;;;;;5114194;28;20082;-81
2021/10/06 07:40:24;;;;;;;0.10;0.10;;;11.00;97.20;;;;;;5114436;28;20032;-79
2021/10/06 07:42:50;;;;;;;0.00;0.00;;;11.00;97.20;;;;;;5096147;28;20027;-78
2021/10/06 07:45:15;;;;;;;0.00;0.00;;;11.10;97.20;;;;;;5096271;28;20068;-78
2021/10/06 07:47:41;;;;;;;0.00;0.00;;;11.00;97.20;;;;;;5114463;28;20095;-78
2021/10/06 07:50:07;;;;;;;0.10;0.10;;;11.00;97.20;;;;;;5114431;28;20092;-77
2021/10/06 07:52:33;;;;;;;0.00;0.00;;;11.10;97.20;;;;;;5113954;28;20022;-79
2021/10/06 07:54:58;;;;;;;0.00;0.00;;;11.10;97.10;;;;;;5114460;28;20032;-77
2021/10/06 07:57:24;;;;;;;0.00;0.00;;;11.20;97.20;;;;;;5095959;28;20414;-78
2021/10/06 07:59:49;;;;;;;0.00;0.00;;;11.20;97.10;;;;;;5114323;28;20533;-80
2021/10/06 08:02:15;;;;;;;0.00;0.00;;;11.10;97.10;;;;;;5114382;28;20480;-79
2021/10/06 08:04:40;;;;;;;0.00;0.00;;;11.10;97.20;;;;;;5095852;28;20023;-80
2021/10/06 08:07:06;;;;;;;0.10;0.10;;;11.20;97.20;;;;;;5113629;28;20015;-78
2021/10/06 08:09:32;;;;;;;0.10;0.10;;;11.20;97.20;;;;;;5114260;28;20564;-79
2021/10/06 08:11:57;;;;;;;0.00;0.00;;;11.20;97.10;;;;;;5095641;28;20039;-78
2021/10/06 08:14:23;;;;;;;0.00;0.00;;;11.20;97.10;;;;;;5114020;28;20464;-78
2021/10/06 08:16:49;;;;;;;0.10;0.10;;;11.20;97.10;;;;;;5095811;28;20072;-78
2021/10/06 08:19:14;;;;;;;0.10;0.10;;;11.20;97.10;;;;;;5095795;28;20494;-80
2021/10/06 08:21:40;;;;;;;0.00;0.00;;;11.20;97.20;;;;;;5113601;28;20016;-78
2021/10/06 08:24:05;;;;;;;0.00;0.00;;;11.20;97.20;;;;;;5095788;28;20019;-79
2021/10/06 08:26:31;;;;;;;0.00;0.00;;;11.20;97.20;;;;;;5095562;28;20027;-78
2021/10/06 08:28:56;;;;;;;0.03;0.03;;;11.20;97.10;;;;;;5113979;28;20084;-79
2021/10/06 08:31:23;;;;;;;0.00;0.00;;;11.30;97.20;;;;;;5113854;28;20047;-79
2021/10/06 08:33:49;;;;;;;0.00;0.00;;;11.30;97.20;;;;;;5113899;28;20085;-79
2021/10/06 08:36:15;;;;;;;0.00;0.00;;;11.30;97.10;;;;;;5095263;28;20379;-78
2021/10/06 08:38:41;;;;;;;0.00;0.00;;;11.40;97.10;;;;;;5095696;28;20020;-76
2021/10/06 08:41:07;;;;;;;0.00;0.00;;;11.40;97.20;;;;;;5113728;28;20024;-77
2021/10/06 08:43:34;;;;;;;0.00;0.00;;;11.50;97.20;;;;;;5113708;28;20024;-76
2021/10/06 08:45:59;;;;;;;0.10;0.10;;;11.50;97.10;;;;;;5113648;28;20032;-76
2021/10/06 08:48:27;;;;;;;0.00;0.00;;;11.60;97.10;;;;;;5113631;28;20035;-76
2021/10/06 08:50:52;;;;;;;0.00;0.00;;;11.60;97.10;;;;;;5094804;28;20023;-78
2021/10/06 08:53:18;;;;;;;0.00;0.00;;;11.60;97.10;;;;;;5113686;28;20020;-76
2021/10/06 08:55:43;;;;;;;0.00;0.00;;;11.60;97.10;;;;;;5095328;28;20469;-77
2021/10/06 08:58:09;;;;;;;0.00;0.00;;;11.60;97.10;;;;;;5113629;28;20023;-77
2021/10/06 09:00:56;;;;;;;0.00;0.00;;;11.70;97.10;;;;;;5095198;28;20023;-76
2021/10/06 09:03:30;;;;;;;0.08;0.08;;;11.70;97.00;;;;;;5095295;28;20027;-76
2021/10/06 09:06:14;;;;;;;0.10;0.10;;;11.70;97.10;;;;;;5113221;28;20589;-77
2021/10/06 09:08:45;;;;;;;0.00;0.00;;;11.70;97.00;;;;;;5113324;28;20032;-77
2021/10/06 09:11:13;;;;;;;0.00;0.00;;;11.70;97.10;;;;;;5113241;28;20047;-77
2021/10/06 09:13:42;;;;;;;0.00;0.00;;;11.80;97.10;;;;;;5095223;28;20031;-77
2021/10/06 09:16:09;;;;;;;0.10;0.10;;;11.80;97.10;;;;;;5097712;28;20020;-77
2021/10/06 09:18:35;;;;;;;0.10;0.10;;;11.80;97.10;;;;;;5098520;28;20112;-78
2021/10/06 09:21:09;;;;;;;0.03;0.03;;;11.80;97.10;;;;;;5117184;28;20422;-77
2021/10/06 09:23:37;;;;;;;0.00;0.00;;;11.80;97.10;;;;;;5117428;28;20104;-77
2021/10/06 09:26:06;;;;;;;0.00;0.00;;;11.80;97.20;;;;;;5098942;28;20028;-76
2021/10/06 09:28:38;;;;;;;0.10;0.10;;;11.80;97.20;;;;;;5117066;28;20567;-78
2021/10/06 09:31:08;;;;;;;0.00;0.00;;;11.90;97.30;;;;;;5098848;28;20027;-76
2021/10/06 09:33:44;;;;;;;0.00;0.00;;;12.00;97.30;;;;;;5098372;28;20068;-76
2021/10/06 09:36:12;;;;;;;0.00;0.00;;;12.10;97.20;;;;;;5098692;28;20383;-76
2021/10/06 09:38:44;;;;;;;0.00;0.00;;;12.20;97.30;;;;;;5117084;28;20020;-76
2021/10/06 09:41:30;;;;;;;0.00;0.00;;;12.20;97.40;;;;;;5098586;28;20053;-77
2021/10/06 09:44:17;;;;;;;0.00;0.00;;;12.20;97.10;;;;;;5116861;28;20050;-77
2021/10/06 09:46:53;;;;;;;0.00;0.00;;;12.30;97.10;;;;;;5098624;28;20041;-76
2021/10/06 09:49:24;;;;;;;0.00;0.00;;;12.30;97.20;;;;;;5116363;28;20099;-76
2021/10/06 09:51:51;;;;;;;0.00;0.00;;;12.40;97.20;;;;;;5116743;28;20027;-75
2021/10/06 09:54:17;;;;;;;0.00;0.00;;;12.60;97.20;;;;;;5116823;28;20023;-74
2021/10/06 09:56:45;;;;;;;0.00;0.00;;;12.60;97.10;;;;;;5116762;28;20019;-76
2021/10/06 09:59:15;;;;;;;0.10;0.10;;;12.60;96.90;;;;;;5098249;28;20038;-76
2021/10/06 10:01:42;;;;;;;0.00;0.00;;;12.60;96.90;;;;;;5098415;28;20020;-75
2021/10/06 10:04:09;;;;;;;0.00;0.00;;;12.50;96.80;;;;;;5116011;28;20027;-76
2021/10/06 10:06:36;;;;;;;0.00;0.00;;;12.40;96.90;;;;;;5116261;28;20023;-77
2021/10/06 10:09:05;;;;;;;0.00;0.00;;;12.50;97.00;;;;;;5116442;28;20051;-76
2021/10/06 10:11:32;;;;;;;0.00;0.00;;;12.50;96.90;;;;;;5116240;28;20480;-75
2021/10/06 10:13:58;;;;;;;0.00;0.00;;;12.40;96.90;;;;;;5116114;28;20415;-77
2021/10/06 10:16:25;;;;;;;0.03;0.03;;;12.40;96.90;;;;;;5115794;28;20019;-77
2021/10/06 10:18:50;;;;;;;0.10;0.10;;;12.40;97.00;;;;;;5116290;28;20060;-76
2021/10/06 10:21:17;;;;;;;0.00;0.00;;;12.40;97.00;;;;;;5116238;28;20020;-77
2021/10/06 10:23:43;;;;;;;0.05;0.05;;;12.50;97.00;;;;;;5116027;28;20030;-76
2021/10/06 10:26:24;;;;;;;0.00;0.00;;;12.50;97.00;;;;;;5097349;28;20024;-75
2021/10/06 10:28:50;;;;;;;0.00;0.00;;;12.60;96.90;;;;;;5115736;28;20137;-75
2021/10/06 10:31:18;;;;;;;0.00;0.00;;;12.60;96.90;;;;;;5115699;28;20499;-76
2021/10/06 10:33:48;;;;;;;0.00;0.00;;;12.60;96.90;;;;;;5115896;28;20058;-75
2021/10/06 10:36:29;;;;;;;0.00;0.00;;;12.70;97.00;;;;;;5115870;28;20026;-76
2021/10/06 10:38:55;;;;;;;0.00;0.00;;;12.90;97.00;;;;;;5115972;28;20019;-75
2021/10/06 10:41:43;;;;;;;0.00;0.00;;;12.90;96.90;;;;;;5115738;28;20034;-76
2021/10/06 10:44:09;;;;;;;0.00;0.00;;;13.00;96.80;;;;;;5115598;28;20111;-74
2021/10/06 10:46:57;;;;;;;0.00;0.00;;;13.00;96.90;;;;;;5115314;28;20027;-75
2021/10/06 10:49:23;;;;;;;0.00;0.00;;;13.10;96.90;;;;;;5115489;28;20502;-75
2021/10/06 10:51:58;;;;;;;0.00;0.00;;;13.20;96.90;;;;;;5115638;28;20103;-75
2021/10/06 10:54:38;;;;;;;0.00;0.00;;;13.30;96.90;;;;;;5115627;28;20032;-73
2021/10/06 10:57:28;;;;;;;0.00;0.00;;;13.40;96.90;;;;;;5097084;28;20063;-74
2021/10/06 10:59:56;;;;;;;0.00;0.00;;;13.60;96.90;;;;;;5115069;28;20096;-75
2021/10/06 11:02:32;;;;;;;0.00;0.00;;;13.70;96.90;;;;;;5115321;28;20026;-74
2021/10/06 11:04:59;;;;;;;0.00;0.00;;;13.90;96.80;;;;;;5115292;28;20375;-75
2021/10/06 11:07:25;;;;;;;0.00;0.00;;;14.00;96.70;;;;;;5115677;28;20027;-73
2021/10/06 11:09:58;;;;;;;0.00;0.00;;;14.00;96.60;;;;;;5115137;28;20036;-74
2021/10/06 11:12:24;;;;;;;0.00;0.00;;;14.10;96.60;;;;;;5114975;28;20083;-74
2021/10/06 11:15:15;;;;;;;0.00;0.00;;;14.10;96.50;;;;;;5114673;28;20058;-75
2021/10/06 11:18:46;;;;;;;0.00;0.00;;;14.10;96.30;;;;;;5115076;28;20367;-74
2021/10/06 11:21:05;;;;;;;0.00;0.00;;;14.00;96.20;;;;;;5110761;28;20020;-74
2021/10/06 11:23:31;;;;;;;0.00;0.00;;;13.90;96.30;;;;;;5114952;28;20023;-75
2021/10/06 11:26:04;;;;;;;0.00;0.00;;;13.90;96.40;;;;;;5096620;28;20026;-75
2021/10/06 11:28:30;;;;;;;0.00;0.00;;;13.80;96.30;;;;;;5096485;28;20024;-74
2021/10/06 11:30:59;;;;;;;0.00;0.00;;;13.70;96.30;;;;;;5096139;28;20027;-73
2021/10/06 11:33:26;;;;;;;0.00;0.00;;;13.60;96.40;;;;;;5114796;28;20077;-74
2021/10/06 11:35:52;;;;;;;0.00;0.00;;;13.80;96.70;;;;;;5114663;28;20349;-74
2021/10/06 11:38:18;;;;;;;0.00;0.00;;;14.10;96.70;;;;;;5114210;28;20061;-73
2021/10/06 11:40:43;;;;;;;0.00;0.00;;;14.50;96.60;;;;;;5114640;28;20061;-74
2021/10/06 11:43:09;;;;;;;0.00;0.00;;;14.70;96.50;;;;;;5114590;28;20023;-74
2021/10/06 11:45:34;;;;;;;0.00;0.00;;;14.80;96.20;;;;;;5114206;28;20019;-74
2021/10/06 11:48:10;;;;;;;0.00;0.00;;;14.80;96.10;;;;;;5114435;28;20368;-75
2021/10/06 11:50:36;;;;;;;0.00;0.00;;;14.80;96.10;;;;;;5114441;28;20380;-74
2021/10/06 11:53:02;;;;;;;0.00;0.00;;;14.80;96.10;;;;;;5114472;28;20015;-74
2021/10/06 11:55:27;;;;;;;0.00;0.00;;;14.90;96.00;;;;;;5114378;28;20047;-72
2021/10/06 11:57:53;;;;;;;0.05;0.05;;;14.90;96.00;;;;;;5113735;28;20030;-74
2021/10/06 12:00:19;;;;;;;0.00;0.00;;;14.80;95.90;;;;;;5114357;28;20526;-74
2021/10/06 12:02:45;;;;;;;0.00;0.00;;;14.70;95.80;;;;;;5114199;28;20051;-74
2021/10/06 12:05:10;;;;;;;0.00;0.00;;;14.70;95.80;;;;;;5114315;28;20118;-75
2021/10/06 12:07:36;;;;;;;0.00;0.00;;;14.60;95.70;;;;;;5114051;28;20020;-74
2021/10/06 12:10:10;;;;;;;0.00;0.00;;;14.50;95.70;;;;;;5095769;28;20028;-74
2021/10/06 12:12:40;;;;;;;0.00;0.00;;;14.40;95.80;;;;;;5113812;28;20394;-74
2021/10/06 12:15:12;;;;;;;0.00;0.00;;;14.40;96.00;;;;;;5114127;28;20027;-75
2021/10/06 12:17:43;;;;;;;0.00;0.00;;;14.50;96.10;;;;;;5113937;28;20511;-74
2021/10/06 12:20:11;;;;;;;0.00;0.00;;;14.60;96.20;;;;;;5113986;28;20023;-73
2021/10/06 12:23:03;;;;;;;0.00;0.00;;;14.70;96.20;;;;;;5113855;28;20078;-75
2021/10/06 12:25:32;;;;;;;0.00;0.00;;;14.70;95.90;;;;;;5110158;28;20036;-75
2021/10/06 12:28:07;;;;;;;0.00;0.00;;;14.70;95.90;;;;;;5113316;28;20028;-75
2021/10/06 12:30:34;;;;;;;0.00;0.00;;;14.70;96.00;;;;;;5095595;28;20053;-74
2021/10/06 12:33:09;;;;;;;0.00;0.00;;;14.80;96.20;;;;;;5113732;28;20016;-74
2021/10/06 12:35:49;;;;;;;0.00;0.00;;;15.00;96.00;;;;;;5113806;28;20107;-74
2021/10/06 12:38:15;;;;;;;0.00;0.00;;;15.20;96.20;;;;;;5095614;28;20024;-74
2021/10/06 12:40:48;;;;;;;0.00;0.00;;;15.40;96.20;;;;;;5113614;28;20084;-73
2021/10/06 12:43:19;;;;;;;0.00;0.00;;;15.60;96.20;;;;;;5095038;28;20032;-74
2021/10/06 12:46:01;;;;;;;0.00;0.00;;;15.90;96.30;;;;;;5113629;28;20019;-73
2021/10/06 12:48:40;;;;;;;0.00;0.00;;;16.10;95.80;;;;;;5095318;28;20027;-73